Ashley, North Dakota
Current Conditions -  °F | °C
As of 7:35 PM on Monday 20 Oct 2014 (Local Time) from K7L2 Reporting Station
Clear Clear  
Wind Chill: 57°   Ceiling: Unl
Heat Index: 57°   Visibility: 10mi
Dew Point: 36°   Wind: 10mph
Humidity: 44%   Direction: 140°SE
Pressure: 29.96"   Gusts: NA
Location:  46.03°N, 99.37°W
Report Text: K7L2 210035Z AUTO 14009KT 10SM CLR 14/02 A2996 RMK AO2 PWINO PNO
Loading
Personal Weather Stations






























Interactive Weather Map
Tropical Storm Tracking
New forecast layout! Learn more

10-Day Weather Forecast

Advertisements
Track Severe Weather on mobile